createdAt,value
2019-05-25T00:01:40.108Z,2.53
2019-05-25T00:04:09.188Z,2.70
2019-05-25T00:06:38.395Z,2.67
2019-05-25T00:09:07.949Z,2.07
2019-05-25T00:11:37.124Z,2.50
2019-05-25T00:14:06.281Z,2.57
2019-05-25T00:16:35.326Z,2.27
2019-05-25T00:19:04.515Z,2.30
2019-05-25T00:21:41.059Z,2.30
2019-05-25T00:24:12.659Z,2.10
2019-05-25T00:26:40.852Z,1.87
2019-05-25T00:29:09.982Z,2.13
2019-05-25T00:31:39.017Z,2.00
2019-05-25T00:34:11.080Z,2.07
2019-05-25T00:36:40.444Z,2.00
2019-05-25T00:39:09.548Z,2.17
2019-05-25T00:41:38.644Z,1.80
2019-05-25T00:44:08.655Z,1.83
2019-05-25T00:46:37.953Z,2.03
2019-05-25T00:49:08.642Z,1.90
2019-05-25T00:51:37.956Z,1.90
2019-05-25T00:54:07.269Z,2.10
2019-05-25T00:56:36.246Z,1.77
2019-05-25T00:59:05.292Z,2.10
2019-05-25T01:01:34.924Z,2.10
2019-05-25T01:04:04.299Z,2.10
2019-05-25T01:06:33.455Z,1.90
2019-05-25T01:09:02.614Z,2.40
2019-05-25T01:11:32.220Z,2.30
2019-05-25T01:14:01.311Z,2.40
2019-05-25T01:16:30.357Z,2.20
2019-05-25T01:18:59.461Z,2.07
2019-05-25T01:21:29.261Z,2.10
2019-05-25T01:24:02.615Z,2.10
2019-05-25T01:26:31.909Z,2.33
2019-05-25T01:29:00.877Z,2.37
2019-05-25T01:31:30.297Z,2.10
2019-05-25T01:33:59.306Z,2.30
2019-05-25T01:36:28.563Z,2.27
2019-05-25T01:38:57.488Z,2.40
2019-05-25T01:41:26.745Z,2.30
2019-05-25T01:43:55.803Z,2.33
2019-05-25T01:46:24.725Z,2.40
2019-05-25T01:48:53.792Z,2.33
2019-05-25T01:51:22.985Z,2.93
2019-05-25T01:53:51.929Z,2.10
2019-05-25T01:56:21.048Z,2.03
2019-05-25T01:58:50.103Z,2.77
2019-05-25T02:01:19.237Z,2.50
2019-05-25T02:03:48.311Z,2.40
2019-05-25T02:06:17.456Z,2.20
2019-05-25T02:08:46.427Z,2.00
2019-05-25T02:11:15.523Z,2.30
2019-05-25T02:13:44.591Z,2.20
2019-05-25T02:16:13.715Z,2.40
2019-05-25T02:18:45.644Z,2.20
2019-05-25T02:21:13.683Z,2.47
2019-05-25T02:23:42.913Z,2.30
2019-05-25T02:26:12.003Z,2.20
2019-05-25T02:28:41.100Z,2.80
2019-05-25T02:31:10.038Z,2.40
2019-05-25T02:33:39.441Z,2.50
2019-05-25T02:36:08.444Z,2.77
2019-05-25T02:38:37.655Z,2.40
2019-05-25T02:41:06.826Z,2.63
2019-05-25T02:43:36.252Z,2.60
2019-05-25T02:46:05.363Z,2.20
2019-05-25T02:48:34.444Z,2.53
2019-05-25T02:51:06.094Z,2.50
2019-05-25T02:53:35.254Z,2.33
2019-05-25T02:56:04.519Z,2.50
2019-05-25T02:58:33.670Z,2.57
2019-05-25T03:01:04.135Z,2.60
2019-05-25T03:03:33.147Z,2.40
2019-05-25T03:06:06.635Z,2.50
2019-05-25T03:08:37.559Z,2.40
2019-05-25T03:11:06.813Z,2.73
2019-05-25T03:13:36.119Z,2.30
2019-05-25T03:16:05.253Z,2.47
2019-05-25T03:18:34.224Z,2.67
2019-05-25T03:21:03.303Z,2.73
2019-05-25T03:23:32.350Z,2.97
2019-05-25T03:26:01.314Z,2.47
2019-05-25T03:28:30.317Z,2.40
2019-05-25T03:30:59.278Z,2.63
2019-05-25T03:33:28.863Z,2.30
2019-05-25T03:35:57.966Z,2.40
2019-05-25T03:38:27.014Z,2.27
2019-05-25T03:40:56.149Z,2.43
2019-05-25T03:43:25.058Z,3.30
2019-05-25T03:45:54.259Z,2.50
2019-05-25T03:48:23.645Z,2.50
2019-05-25T03:50:52.718Z,2.70
2019-05-25T03:53:21.667Z,2.30
2019-05-25T03:56:04.731Z,2.67
2019-05-25T03:58:21.822Z,2.23
2019-05-25T04:00:50.969Z,2.83
2019-05-25T04:03:20.007Z,2.57
2019-05-25T04:05:49.141Z,2.80
2019-05-25T04:08:18.159Z,2.30
2019-05-25T04:10:47.092Z,2.90
2019-05-25T04:13:16.339Z,2.50
2019-05-25T04:15:45.457Z,2.67
2019-05-25T04:18:14.640Z,2.50
2019-05-25T04:20:43.854Z,2.73
2019-05-25T04:23:13.121Z,2.10
2019-05-25T04:25:43.303Z,2.60
2019-05-25T04:28:12.419Z,2.57
2019-05-25T04:30:41.942Z,2.53
2019-05-25T04:33:11.523Z,2.80
2019-05-25T04:35:40.549Z,2.30
2019-05-25T04:38:12.781Z,2.13
2019-05-25T04:40:41.774Z,2.33
2019-05-25T04:43:10.811Z,2.47
2019-05-25T04:45:40.148Z,2.00
2019-05-25T04:48:09.266Z,2.70
2019-05-25T04:50:38.440Z,2.33
2019-05-25T04:53:07.479Z,2.43
2019-05-25T04:55:36.578Z,2.27
2019-05-25T04:58:06.001Z,2.27
2019-05-25T05:00:34.970Z,3.97
2019-05-25T05:03:04.138Z,2.63
2019-05-25T05:05:33.251Z,2.00
2019-05-25T05:08:02.257Z,2.13
2019-05-25T05:10:31.967Z,2.80
2019-05-25T05:13:01.151Z,2.30
2019-05-25T05:15:30.747Z,2.20
2019-05-25T05:18:00.190Z,2.77
2019-05-25T05:20:29.330Z,2.57
2019-05-25T05:22:58.389Z,2.37
2019-05-25T05:25:27.811Z,1.93
2019-05-25T05:27:56.858Z,2.30
2019-05-25T05:30:35.892Z,2.30
2019-05-25T05:33:05.139Z,2.20
2019-05-25T05:35:38.203Z,2.20
2019-05-25T05:38:07.140Z,2.10
2019-05-25T05:40:37.221Z,2.43
2019-05-25T05:43:12.699Z,2.30
2019-05-25T05:45:43.220Z,2.00
2019-05-25T05:48:20.648Z,2.17
2019-05-25T05:50:52.985Z,2.40
2019-05-25T05:53:25.166Z,2.33
2019-05-25T05:55:54.208Z,2.40
2019-05-25T05:58:23.403Z,2.60
2019-05-25T06:00:52.753Z,2.47
2019-05-25T06:03:34.624Z,2.27
2019-05-25T06:06:03.875Z,2.50
2019-05-25T06:08:33.059Z,2.10
2019-05-25T06:11:02.061Z,2.40
2019-05-25T06:13:31.792Z,2.37
2019-05-25T06:16:00.870Z,2.10
2019-05-25T06:18:30.235Z,2.40
2019-05-25T06:20:59.383Z,2.20
2019-05-25T06:23:59.199Z,2.30
2019-05-25T06:26:28.481Z,2.27
2019-05-25T06:28:57.565Z,2.47
2019-05-25T06:31:26.590Z,2.10
2019-05-25T06:33:55.665Z,1.90
2019-05-25T06:36:25.160Z,2.50
2019-05-25T06:38:56.938Z,2.23
2019-05-25T06:41:25.999Z,2.53
2019-05-25T06:43:55.191Z,2.40
2019-05-25T06:46:24.512Z,2.83
2019-05-25T06:48:55.750Z,2.33
2019-05-25T06:51:25.426Z,2.60
2019-05-25T06:53:54.547Z,2.30
2019-05-25T06:56:23.852Z,2.40
2019-05-25T06:58:53.072Z,2.67
2019-05-25T07:01:22.231Z,2.27
2019-05-25T07:03:51.585Z,2.57
2019-05-25T07:06:20.769Z,3.33
2019-05-25T07:08:58.036Z,2.50
2019-05-25T07:11:28.465Z,2.53
2019-05-25T07:13:57.913Z,2.63
2019-05-25T07:16:27.420Z,2.87
2019-05-25T07:18:56.602Z,2.53
2019-05-25T07:21:25.827Z,2.30
2019-05-25T07:23:58.256Z,2.50
2019-05-25T07:26:47.974Z,2.50
2019-05-25T07:29:09.727Z,2.60
2019-05-25T07:31:40.253Z,2.67
2019-05-25T07:34:09.316Z,2.60
2019-05-25T07:36:38.656Z,2.90
2019-05-25T07:39:12.048Z,2.53
2019-05-25T07:41:42.187Z,2.27
2019-05-25T07:44:12.114Z,3.10
2019-05-25T07:46:41.334Z,3.03
2019-05-25T07:49:11.801Z,3.00
2019-05-25T07:51:45.752Z,3.10
2019-05-25T07:54:15.021Z,3.20
2019-05-25T07:56:45.919Z,3.50
2019-05-25T07:59:15.174Z,3.13
2019-05-25T08:01:44.587Z,3.27
2019-05-25T08:04:14.210Z,3.37
2019-05-25T08:07:03.855Z,2.90
2019-05-25T08:09:33.482Z,3.00
2019-05-25T08:12:02.738Z,3.50
2019-05-25T08:14:32.090Z,3.67
2019-05-25T08:17:03.440Z,3.50
2019-05-25T08:19:32.792Z,3.27
2019-05-25T08:22:04.941Z,3.43
2019-05-25T08:24:34.049Z,2.80
2019-05-25T08:27:03.201Z,3.17
2019-05-25T08:29:32.640Z,3.37
2019-05-25T08:32:01.880Z,3.30
2019-05-25T08:34:31.243Z,3.50
2019-05-25T08:37:00.341Z,3.97
2019-05-25T08:39:30.171Z,3.50
2019-05-25T08:42:00.217Z,3.93
2019-05-25T08:44:29.953Z,3.57
2019-05-25T08:46:59.359Z,3.50
2019-05-25T08:49:41.964Z,3.63
2019-05-25T08:52:13.533Z,3.60
2019-05-25T08:54:42.977Z,3.40
2019-05-25T08:57:25.898Z,3.20
2019-05-25T08:59:57.611Z,3.20
2019-05-25T09:02:27.812Z,3.40
2019-05-25T09:05:01.347Z,2.90
2019-05-25T09:08:20.898Z,2.40
2019-05-25T09:10:53.475Z,2.90
2019-05-25T09:13:27.291Z,2.80
2019-05-25T09:15:56.921Z,2.80
2019-05-25T09:18:26.218Z,3.10
2019-05-25T09:20:55.248Z,2.70
2019-05-25T09:23:24.214Z,3.20
2019-05-25T09:25:56.496Z,2.70
2019-05-25T09:28:25.744Z,3.30
2019-05-25T09:31:17.912Z,3.50
2019-05-25T09:33:47.323Z,2.90
2019-05-25T09:36:16.559Z,3.13
2019-05-25T09:39:02.035Z,2.77
2019-05-25T09:41:39.213Z,2.80
2019-05-25T09:44:19.582Z,2.50
2019-05-25T09:47:02.739Z,2.53
2019-05-25T09:50:03.385Z,2.33
2019-05-25T09:52:52.603Z,2.90
2019-05-25T09:55:41.166Z,2.70
2019-05-25T09:58:39.926Z,2.80
2019-05-25T10:01:30.874Z,2.80
2019-05-25T10:04:27.647Z,2.70
2019-05-25T10:07:28.627Z,3.33
2019-05-25T10:10:59.224Z,2.87
2019-05-25T10:20:01.324Z,3.20
2019-05-25T10:22:30.809Z,3.50
2019-05-25T10:25:58.995Z,2.57
2019-05-25T10:28:28.886Z,2.67
2019-05-25T10:30:59.673Z,2.63
2019-05-25T10:33:32.099Z,2.93
2019-05-25T10:36:07.829Z,3.07
2019-05-25T10:38:37.563Z,3.47
2019-05-25T10:41:17.907Z,3.37
2019-05-25T10:43:56.661Z,3.10
2019-05-25T10:46:26.364Z,3.00
2019-05-25T10:49:00.793Z,3.03
2019-05-25T10:51:34.661Z,5.70
2019-05-25T10:54:07.058Z,5.57
2019-05-25T10:56:38.434Z,4.50
2019-05-25T10:59:07.667Z,4.57
2019-05-25T11:01:38.283Z,3.60
2019-05-25T11:04:10.993Z,2.87
2019-05-25T11:06:42.664Z,2.60
2019-05-25T11:09:12.277Z,2.70
2019-05-25T11:11:47.687Z,2.87
2019-05-25T11:14:18.308Z,3.00
2019-05-25T11:16:49.492Z,3.53
2019-05-25T11:19:23.915Z,3.37
2019-05-25T11:21:51.369Z,2.40
2019-05-25T11:24:20.965Z,2.83
2019-05-25T11:26:52.981Z,2.93
2019-05-25T11:29:22.346Z,2.27
2019-05-25T11:32:01.993Z,3.07
2019-05-25T11:34:40.740Z,2.80
2019-05-25T11:37:14.908Z,2.77
2019-05-25T11:40:02.037Z,2.60
2019-05-25T11:42:41.250Z,2.77
2019-05-25T11:45:54.703Z,2.40
2019-05-25T11:48:52.097Z,2.60
2019-05-25T11:51:30.895Z,2.67
2019-05-25T11:54:56.641Z,2.43
2019-05-25T12:01:05.884Z,2.50
2019-05-25T12:03:35.929Z,2.20
2019-05-25T12:06:09.086Z,2.60
2019-05-25T12:09:22.646Z,2.63
2019-05-25T12:12:04.852Z,2.40
2019-05-25T12:14:50.760Z,2.40
2019-05-25T12:17:42.563Z,2.20
2019-05-25T12:20:12.263Z,2.27
2019-05-25T12:22:41.640Z,2.90
2019-05-25T12:25:12.153Z,2.30
2019-05-25T12:27:42.432Z,2.60
2019-05-25T12:30:37.855Z,2.50
2019-05-25T12:33:00.708Z,2.50
2019-05-25T12:35:32.026Z,3.07
2019-05-25T12:38:04.766Z,2.63
2019-05-25T12:40:52.639Z,3.47
2019-05-25T12:43:17.048Z,5.23
2019-05-25T12:45:54.487Z,2.53
2019-05-25T12:48:41.044Z,3.40
2019-05-25T12:51:22.187Z,3.60
2019-05-25T12:54:02.677Z,2.93
2019-05-25T12:57:54.302Z,3.00
2019-05-25T12:59:17.342Z,2.63
2019-05-25T13:01:47.179Z,2.80
2019-05-25T13:07:21.187Z,2.83
2019-05-25T13:09:53.434Z,2.77
2019-05-25T13:12:26.046Z,2.90
2019-05-25T13:15:01.456Z,2.90
2019-05-25T13:17:33.270Z,2.73
2019-05-25T13:20:06.913Z,2.57
2019-05-25T13:22:36.336Z,2.80
2019-05-25T13:25:06.999Z,2.60
2019-05-25T13:27:36.948Z,3.03
2019-05-25T13:30:09.168Z,3.20
2019-05-25T13:32:50.319Z,3.03
2019-05-25T13:35:28.983Z,2.80
2019-05-25T13:37:58.951Z,3.13
2019-05-25T13:40:28.494Z,3.37
2019-05-25T13:43:03.513Z,3.93
2019-05-25T13:45:35.569Z,3.00
2019-05-25T13:48:08.109Z,3.97
2019-05-25T13:50:38.108Z,2.70
2019-05-25T13:53:19.302Z,2.63
2019-05-25T13:55:54.401Z,3.03
2019-05-25T13:58:26.096Z,3.17
2019-05-25T14:00:56.528Z,3.73
2019-05-25T14:03:26.891Z,3.33
2019-05-25T14:05:56.444Z,3.20
2019-05-25T14:08:35.453Z,3.00
2019-05-25T14:11:04.918Z,2.77
2019-05-25T14:13:34.437Z,3.03
2019-05-25T14:16:07.085Z,3.00
2019-05-25T14:18:39.591Z,3.00
2019-05-25T14:21:12.108Z,2.80
2019-05-25T14:23:48.609Z,2.80
2019-05-25T14:26:18.374Z,2.87
2019-05-25T14:28:47.684Z,3.30
2019-05-25T14:31:44.380Z,2.57
2019-05-25T14:34:02.288Z,3.20
2019-05-25T14:36:37.054Z,3.10
2019-05-25T14:39:11.575Z,2.53
2019-05-25T14:41:44.373Z,2.90
2019-05-25T14:44:44.584Z,2.67
2019-05-25T14:47:12.556Z,2.60
2019-05-25T14:49:43.551Z,2.93
2019-05-25T14:52:13.626Z,2.53
2019-05-25T14:54:51.020Z,2.60
2019-05-25T14:57:24.569Z,2.93
2019-05-25T15:02:52.221Z,2.77
2019-05-25T15:05:26.201Z,2.30
2019-05-25T15:08:10.351Z,2.90
2019-05-25T15:10:43.590Z,3.00
2019-05-25T15:13:12.994Z,3.80
2019-05-25T15:16:06.206Z,2.67
2019-05-25T15:18:36.339Z,2.70
2019-05-25T15:21:14.940Z,3.37
2019-05-25T15:23:56.590Z,2.80
2019-05-25T15:26:29.425Z,3.10
2019-05-25T15:28:59.842Z,3.20
2019-05-25T15:31:48.429Z,2.50
2019-05-25T15:34:18.716Z,2.90
2019-05-25T15:36:47.974Z,2.53
2019-05-25T15:39:18.665Z,2.90
2019-05-25T15:41:48.064Z,2.73
2019-05-25T15:44:17.658Z,3.17
2019-05-25T15:46:47.005Z,2.97
2019-05-25T15:49:16.408Z,2.77
2019-05-25T15:51:47.723Z,2.63
2019-05-25T15:54:17.282Z,3.07
2019-05-25T15:56:46.854Z,2.70
2019-05-25T15:59:23.483Z,2.57
2019-05-25T16:01:51.842Z,2.87
2019-05-25T16:04:21.160Z,3.00
2019-05-25T16:06:50.826Z,2.47
2019-05-25T16:09:21.490Z,2.40
2019-05-25T16:11:52.001Z,2.70
2019-05-25T16:14:22.958Z,2.50
2019-05-25T16:16:52.226Z,2.77
2019-05-25T16:19:21.493Z,2.73
2019-05-25T16:21:50.724Z,3.00
2019-05-25T16:24:20.092Z,2.60
2019-05-25T16:26:49.756Z,2.30
2019-05-25T16:29:19.108Z,2.80
2019-05-25T16:31:48.345Z,2.70
2019-05-25T16:34:17.518Z,2.20
2019-05-25T16:36:46.832Z,2.30
2019-05-25T16:39:16.241Z,2.83
2019-05-25T16:41:46.382Z,2.27
2019-05-25T16:44:15.802Z,2.43
2019-05-25T16:46:49.543Z,2.83
2019-05-25T16:49:21.951Z,3.37
2019-05-25T16:51:55.816Z,3.50
2019-05-25T16:54:25.428Z,2.90
2019-05-25T16:56:56.937Z,4.57
2019-05-25T16:59:26.213Z,3.67
2019-05-25T17:01:55.394Z,3.00
2019-05-25T17:04:27.745Z,2.53
2019-05-25T17:07:03.197Z,3.13
2019-05-25T17:09:36.717Z,2.67
2019-05-25T17:12:08.546Z,2.40
2019-05-25T17:14:45.531Z,2.50
2019-05-25T17:17:15.734Z,3.13
2019-05-25T17:19:45.009Z,3.50
2019-05-25T17:22:14.203Z,3.27
2019-05-25T17:24:43.696Z,3.30
2019-05-25T17:27:13.071Z,3.10
2019-05-25T17:29:42.404Z,3.20
2019-05-25T17:35:04.380Z,3.07
2019-05-25T17:37:33.810Z,3.20
2019-05-25T17:40:03.166Z,3.80
2019-05-25T17:42:32.515Z,2.80
2019-05-25T17:45:01.613Z,2.73
2019-05-25T17:47:31.021Z,2.67
2019-05-25T17:50:00.244Z,3.00
2019-05-25T17:52:29.601Z,3.13
2019-05-25T17:55:01.419Z,3.60
2019-05-25T17:57:30.665Z,2.93
2019-05-25T18:00:01.283Z,3.00
2019-05-25T18:02:30.667Z,2.77
2019-05-25T18:04:59.957Z,2.70
2019-05-25T18:07:32.581Z,2.90
2019-05-25T18:10:01.655Z,3.30
2019-05-25T18:12:31.048Z,3.13
2019-05-25T18:15:21.045Z,2.83
2019-05-25T18:17:55.636Z,2.33
2019-05-25T18:20:27.663Z,3.27
2019-05-25T18:23:24.282Z,3.17
2019-05-25T18:25:54.034Z,2.80
2019-05-25T18:31:17.367Z,3.30
2019-05-25T18:33:50.567Z,3.20
2019-05-25T18:36:23.523Z,4.00
2019-05-25T18:38:53.565Z,12.73
2019-05-25T18:41:28.512Z,4.93
2019-05-25T18:44:00.242Z,3.60
2019-05-25T18:46:29.437Z,4.17
2019-05-25T18:48:59.062Z,6.30
2019-05-25T18:51:28.169Z,3.87
2019-05-25T18:53:57.613Z,2.93
2019-05-25T18:56:26.961Z,3.67
2019-05-25T18:58:56.314Z,4.60
2019-05-25T19:01:25.473Z,4.07
2019-05-25T19:03:56.368Z,3.40
2019-05-25T19:06:25.968Z,3.90
2019-05-25T19:08:57.285Z,3.50
2019-05-25T19:11:29.109Z,3.63
2019-05-25T19:13:58.324Z,4.33
2019-05-25T19:16:28.974Z,3.87
2019-05-25T19:18:58.239Z,3.30
2019-05-25T19:21:30.293Z,2.80
2019-05-25T19:24:00.279Z,2.70
2019-05-25T19:26:38.866Z,3.30
2019-05-25T19:29:11.647Z,3.33
2019-05-25T19:31:45.457Z,3.67
2019-05-25T19:34:15.713Z,3.33
2019-05-25T19:36:46.403Z,5.57
2019-05-25T19:39:32.649Z,4.10
2019-05-25T19:42:23.249Z,3.50
2019-05-25T19:44:53.767Z,3.40
2019-05-25T19:47:25.774Z,2.80
2019-05-25T19:50:03.862Z,8.07
2019-05-25T19:52:44.243Z,4.70
2019-05-25T19:55:24.791Z,3.60
2019-05-25T19:58:09.458Z,3.60
2019-05-25T20:01:01.330Z,3.30
2019-05-25T20:03:30.977Z,3.90
2019-05-25T20:06:31.402Z,3.37
2019-05-25T20:09:07.720Z,3.30
2019-05-25T20:11:40.811Z,3.30
2019-05-25T20:14:13.537Z,3.40
2019-05-25T20:16:43.400Z,3.30
2019-05-25T20:19:18.121Z,3.50
2019-05-25T20:21:50.880Z,3.80
2019-05-25T20:24:20.192Z,3.73
2019-05-25T20:26:49.387Z,3.53
2019-05-25T20:29:18.997Z,4.00
2019-05-25T20:31:48.418Z,4.03
2019-05-25T20:34:21.851Z,4.13
2019-05-25T20:36:53.954Z,3.67
2019-05-25T20:39:36.552Z,4.00
2019-05-25T20:42:15.193Z,3.10
2019-05-25T20:44:45.086Z,3.97
2019-05-25T20:47:15.610Z,4.00
2019-05-25T20:49:45.291Z,4.00
2019-05-25T20:52:17.399Z,3.37
2019-05-25T20:54:49.244Z,3.17
2019-05-25T20:57:27.337Z,3.20
2019-05-25T20:59:53.989Z,4.77
2019-05-25T21:02:23.943Z,5.00
2019-05-25T21:04:53.517Z,4.37
2019-05-25T21:07:35.629Z,3.73
2019-05-25T21:10:24.985Z,3.20
2019-05-25T21:13:00.272Z,3.17
2019-05-25T21:15:29.808Z,3.87
2019-05-25T21:18:01.303Z,3.23
2019-05-25T21:20:32.747Z,2.83
2019-05-25T21:23:02.125Z,3.20
2019-05-25T21:25:32.664Z,3.60
2019-05-25T21:28:06.365Z,4.10
2019-05-25T21:30:35.687Z,3.90
2019-05-25T21:33:05.014Z,3.37
2019-05-25T21:35:34.368Z,4.23
2019-05-25T21:39:09.749Z,4.07
2019-05-25T21:41:59.519Z,3.80
2019-05-25T21:44:31.297Z,3.20
2019-05-25T21:47:01.255Z,3.90
2019-05-25T21:49:30.769Z,4.00
2019-05-25T21:52:02.417Z,4.10
2019-05-25T21:54:31.845Z,4.90
2019-05-25T21:57:01.726Z,5.60
2019-05-25T21:59:32.719Z,3.47
2019-05-25T22:02:02.826Z,4.80
2019-05-25T22:04:34.529Z,5.13
2019-05-25T22:07:06.167Z,5.27
2019-05-25T22:09:35.451Z,4.20
2019-05-25T22:12:08.011Z,4.10
2019-05-25T22:14:37.611Z,4.30
2019-05-25T22:17:07.036Z,3.93
2019-05-25T22:19:36.121Z,4.77
2019-05-25T22:22:05.549Z,5.43
2019-05-25T22:24:34.872Z,4.20
2019-05-25T22:27:04.312Z,3.50
2019-05-25T22:29:35.325Z,3.20
2019-05-25T22:32:04.954Z,3.70
2019-05-25T22:34:34.114Z,3.60
2019-05-25T22:37:03.294Z,3.60
2019-05-25T22:39:32.402Z,3.30
2019-05-25T22:42:01.549Z,4.20
2019-05-25T22:44:30.749Z,4.70
2019-05-25T22:47:00.110Z,4.40
2019-05-25T22:49:29.244Z,4.13
2019-05-25T22:51:58.529Z,3.83
2019-05-25T22:54:27.851Z,3.97
2019-05-25T22:56:57.162Z,4.20
2019-05-25T22:59:26.315Z,5.50
2019-05-25T23:01:55.771Z,4.73
2019-05-25T23:04:24.858Z,3.53
2019-05-25T23:06:58.264Z,3.87
2019-05-25T23:09:28.673Z,3.60
2019-05-25T23:11:57.725Z,3.80
2019-05-25T23:14:35.937Z,3.47
2019-05-25T23:17:05.051Z,3.80
2019-05-25T23:19:41.585Z,3.97
2019-05-25T23:22:17.727Z,3.80
2019-05-25T23:24:46.877Z,3.73
2019-05-25T23:27:16.360Z,4.30
2019-05-25T23:29:45.335Z,4.13
2019-05-25T23:32:15.150Z,5.33
2019-05-25T23:34:44.770Z,6.03
2019-05-25T23:37:15.126Z,5.67
2019-05-25T23:39:44.381Z,4.93
2019-05-25T23:42:13.578Z,12.10
2019-05-25T23:44:42.631Z,10.93
2019-05-25T23:47:11.682Z,6.73
2019-05-25T23:49:41.236Z,7.00
2019-05-25T23:52:10.397Z,5.57
2019-05-25T23:54:39.472Z,4.60
2019-05-25T23:57:19.133Z,4.13
2019-05-25T23:59:48.323Z,4.10
